Time;durP1;ratioP1;P1;durP2;ratioP2;P2;SDS_P1;SDS_P2;PMS_P1;PMS_P2;Temp;Humidity;BMP_temperature;BMP_pressure;BME280_temperature;BME280_humidity;BME280_pressure;Samples;Min_cycle;Max_cycle;Signal;HPM_P1;HPM_P2
2022/02/12 00:00:59;;;;;;;64.50;25.57;;;-1.40;99.90;;;;;;5027053;28;20525;-68
2022/02/12 00:03:28;;;;;;;58.67;26.30;;;-1.40;99.90;;;;;;5025555;28;20193;-68
2022/02/12 00:05:56;;;;;;;53.00;25.23;;;-1.50;99.90;;;;;;5017224;28;20239;-68
2022/02/12 00:08:26;;;;;;;61.07;25.70;;;-1.40;99.90;;;;;;5030564;28;20212;-68
2022/02/12 00:10:55;;;;;;;57.53;24.90;;;-1.30;99.90;;;;;;5028870;28;20249;-68
2022/02/12 00:13:23;;;;;;;59.43;25.37;;;-1.30;99.90;;;;;;5027755;28;20285;-68
2022/02/12 00:15:52;;;;;;;55.77;24.80;;;-1.30;99.90;;;;;;5035115;28;20212;-68
2022/02/12 00:18:20;;;;;;;52.97;24.33;;;-1.40;99.90;;;;;;5043934;28;20201;-68
2022/02/12 00:20:49;;;;;;;49.77;24.10;;;-1.40;99.90;;;;;;5035018;28;20236;-68
2022/02/12 00:23:17;;;;;;;53.60;22.97;;;-1.50;99.90;;;;;;5027974;28;20190;-68
2022/02/12 00:25:48;;;;;;;44.83;23.40;;;-1.50;99.90;;;;;;5027144;28;20194;-68
2022/02/12 00:28:16;;;;;;;53.23;24.10;;;-1.50;99.90;;;;;;5019380;28;21470;-68
2022/02/12 00:30:45;;;;;;;55.30;23.77;;;-1.60;99.90;;;;;;5029890;28;20202;-67
2022/02/12 00:33:13;;;;;;;55.50;24.07;;;-1.60;99.90;;;;;;5031012;28;20193;-68
2022/02/12 00:35:43;;;;;;;61.50;24.07;;;-1.60;99.90;;;;;;5027712;28;20202;-68
2022/02/12 00:38:11;;;;;;;51.63;24.50;;;-1.50;99.90;;;;;;5027172;28;20240;-68
2022/02/12 00:40:40;;;;;;;48.17;23.67;;;-1.50;99.90;;;;;;5029528;28;20228;-68
2022/02/12 00:43:09;;;;;;;55.13;23.00;;;-1.50;99.90;;;;;;5031477;28;20259;-68
2022/02/12 00:45:38;;;;;;;61.10;22.97;;;-1.50;99.90;;;;;;5029910;28;20193;-67
2022/02/12 00:48:06;;;;;;;53.27;23.33;;;-1.60;99.90;;;;;;5039001;28;20201;-68
2022/02/12 00:50:35;;;;;;;46.60;21.70;;;-1.60;99.90;;;;;;5021759;28;20202;-68
2022/02/12 00:53:03;;;;;;;53.07;21.90;;;-1.60;99.90;;;;;;5005630;28;20205;-68
2022/02/12 00:55:31;;;;;;;49.70;22.27;;;-1.40;99.90;;;;;;5032709;28;20258;-68
2022/02/12 00:58:00;;;;;;;46.87;22.67;;;-1.30;99.90;;;;;;5029495;28;20201;-68
2022/02/12 01:00:29;;;;;;;53.27;21.57;;;-1.20;99.90;;;;;;5025790;28;20226;-68
2022/02/12 01:03:14;;;;;;;55.07;21.83;;;-1.10;99.90;;;;;;5030367;28;20604;-68
2022/02/12 01:05:43;;;;;;;57.13;21.37;;;-1.10;99.90;;;;;;5025644;28;20188;-67
2022/02/12 01:08:13;;;;;;;53.13;20.47;;;-1.10;99.90;;;;;;5026048;28;20536;-68
2022/02/12 01:10:42;;;;;;;48.73;21.53;;;-1.00;99.90;;;;;;5027665;28;20668;-68
2022/02/12 01:13:10;;;;;;;48.50;20.30;;;-1.00;99.90;;;;;;5029580;28;20611;-67
2022/02/12 01:15:40;;;;;;;57.57;20.67;;;-1.00;99.90;;;;;;5036890;28;20193;-68
2022/02/12 01:18:08;;;;;;;47.37;21.17;;;-1.10;99.90;;;;;;5028274;28;20645;-68
2022/02/12 01:20:37;;;;;;;43.13;20.23;;;-1.20;99.90;;;;;;5034161;28;20217;-67
2022/02/12 01:23:05;;;;;;;46.00;19.87;;;-1.30;99.90;;;;;;5030936;28;20694;-68
2022/02/12 01:25:34;;;;;;;40.00;19.73;;;-1.40;99.90;;;;;;5047912;28;20287;-67
2022/02/12 01:28:03;;;;;;;43.53;20.40;;;-1.60;99.90;;;;;;5035528;28;20201;-68
2022/02/12 01:30:31;;;;;;;46.97;18.63;;;-1.60;99.90;;;;;;5029641;28;20198;-68
2022/02/12 01:33:01;;;;;;;44.40;19.50;;;-1.70;99.90;;;;;;5020243;28;20236;-67
2022/02/12 01:35:32;;;;;;;46.37;19.27;;;-1.70;99.90;;;;;;5041956;28;20200;-68
2022/02/12 01:38:00;;;;;;;39.90;18.47;;;-1.70;99.90;;;;;;5031627;28;20706;-67
2022/02/12 01:40:29;;;;;;;38.27;18.13;;;-1.80;99.90;;;;;;5026689;28;20333;-67
2022/02/12 01:43:01;;;;;;;41.30;18.50;;;-1.80;99.90;;;;;;5022232;28;20197;-67
2022/02/12 01:45:31;;;;;;;39.60;17.70;;;-1.90;99.90;;;;;;5024778;28;20198;-67
2022/02/12 01:48:00;;;;;;;42.87;18.37;;;-1.90;99.90;;;;;;5030603;28;20873;-67
2022/02/12 01:50:31;;;;;;;51.33;19.97;;;-2.00;99.90;;;;;;5024677;28;20197;-67
2022/02/12 01:52:59;;;;;;;40.90;18.23;;;-2.00;99.90;;;;;;5026509;28;20284;-67
2022/02/12 01:55:28;;;;;;;42.87;18.00;;;-2.00;99.90;;;;;;5025148;28;20228;-67
2022/02/12 01:57:57;;;;;;;43.37;18.90;;;-2.10;99.90;;;;;;5025587;28;20300;-67
2022/02/12 02:00:26;;;;;;;44.37;18.33;;;-2.10;99.90;;;;;;5024713;28;20213;-67
2022/02/12 02:02:55;;;;;;;47.30;18.47;;;-2.20;99.90;;;;;;5024999;28;20664;-67
2022/02/12 02:05:25;;;;;;;45.50;18.13;;;-2.20;99.90;;;;;;5029117;28;20201;-67
2022/02/12 02:07:55;;;;;;;44.53;18.80;;;-2.20;99.90;;;;;;5025558;28;20256;-67
2022/02/12 02:10:23;;;;;;;43.23;18.57;;;-2.10;99.90;;;;;;5042858;28;20223;-68
2022/02/12 02:12:52;;;;;;;39.70;18.37;;;-2.10;99.90;;;;;;5026569;28;20255;-67
2022/02/12 02:15:20;;;;;;;42.73;18.67;;;-2.10;99.90;;;;;;5026835;28;21321;-67
2022/02/12 02:17:49;;;;;;;46.03;20.87;;;-2.10;99.90;;;;;;5024838;28;20216;-67
2022/02/12 02:20:17;;;;;;;46.93;19.17;;;-2.10;99.90;;;;;;5026547;28;20213;-67
2022/02/12 02:22:50;;;;;;;37.77;18.00;;;-2.10;99.90;;;;;;5027802;28;20205;-67
2022/02/12 02:25:19;;;;;;;51.23;19.60;;;-2.10;99.90;;;;;;5023362;28;20194;-67
2022/02/12 02:27:48;;;;;;;43.17;19.47;;;-2.20;99.90;;;;;;5026481;28;20193;-67
2022/02/12 02:30:19;;;;;;;46.67;18.87;;;-2.10;99.90;;;;;;5028596;28;20235;-67
2022/02/12 02:32:48;;;;;;;39.70;18.97;;;-2.10;99.90;;;;;;5031066;28;20197;-67
2022/02/12 02:35:18;;;;;;;46.37;18.13;;;-2.10;99.90;;;;;;5030807;28;20202;-67
2022/02/12 02:37:49;;;;;;;43.43;17.80;;;-2.20;99.90;;;;;;5026851;28;20197;-67
2022/02/12 02:40:19;;;;;;;37.13;18.43;;;-2.20;99.90;;;;;;5024103;28;20229;-67
2022/02/12 02:42:50;;;;;;;41.73;20.03;;;-2.20;99.90;;;;;;5012604;28;20224;-67
2022/02/12 02:45:18;;;;;;;39.27;20.30;;;-2.10;99.90;;;;;;5028631;28;20200;-67
2022/02/12 02:47:49;;;;;;;49.77;21.53;;;-2.00;99.90;;;;;;5034872;28;20279;-66
2022/02/12 02:56:03;;;;;;;50.00;21.63;;;-1.60;99.90;;;;;;5024976;28;20266;-67
2022/02/12 02:58:34;;;;;;;60.67;22.20;;;-1.50;99.90;;;;;;5035716;28;20577;-67
2022/02/12 03:01:07;;;;;;;54.30;21.77;;;-1.40;99.90;;;;;;5021374;28;20209;-67
2022/02/12 03:03:35;;;;;;;46.57;19.77;;;-1.40;99.90;;;;;;5031767;28;20197;-66
2022/02/12 03:06:07;;;;;;;47.53;19.67;;;-1.50;99.90;;;;;;5026328;28;20792;-67
2022/02/12 03:08:39;;;;;;;47.80;18.60;;;-1.50;99.90;;;;;;5026060;28;20201;-67
2022/02/12 03:11:09;;;;;;;47.43;18.20;;;-1.40;99.90;;;;;;5031128;28;20648;-67
2022/02/12 03:13:38;;;;;;;41.77;18.17;;;-1.40;99.90;;;;;;5024255;28;20198;-67
2022/02/12 03:16:10;;;;;;;44.07;17.33;;;-1.50;99.90;;;;;;5029962;28;20193;-67
2022/02/12 03:18:39;;;;;;;42.67;16.90;;;-1.50;99.90;;;;;;5033532;28;20277;-67
2022/02/12 03:21:10;;;;;;;50.60;17.90;;;-1.50;99.90;;;;;;5027844;28;20220;-67
2022/02/12 03:23:41;;;;;;;54.83;18.00;;;-1.60;99.90;;;;;;5027760;28;20197;-67
2022/02/12 03:26:11;;;;;;;36.70;16.53;;;-1.60;99.90;;;;;;5024832;28;20190;-67
2022/02/12 03:28:40;;;;;;;39.77;18.13;;;-1.60;99.90;;;;;;5031536;28;20225;-67
2022/02/12 03:31:08;;;;;;;47.03;17.67;;;-1.50;99.90;;;;;;5026422;28;20293;-66
2022/02/12 03:33:37;;;;;;;45.30;16.27;;;-1.40;99.90;;;;;;5028322;28;20193;-66
2022/02/12 03:36:06;;;;;;;48.63;16.80;;;-1.40;99.90;;;;;;5026821;28;20288;-67
2022/02/12 03:38:39;;;;;;;38.47;17.30;;;-1.40;99.90;;;;;;5038054;28;20225;-67
2022/02/12 03:41:09;;;;;;;48.20;19.10;;;-1.40;99.90;;;;;;5035811;28;20209;-67
2022/02/12 03:43:38;;;;;;;48.33;19.63;;;-1.40;99.90;;;;;;5027846;28;20660;-67
2022/02/12 03:46:09;;;;;;;48.77;20.40;;;-1.40;99.90;;;;;;5028570;28;20326;-67
2022/02/12 03:48:37;;;;;;;43.37;19.43;;;-1.30;99.90;;;;;;5032731;28;20219;-66
2022/02/12 03:51:06;;;;;;;48.43;20.77;;;-1.40;99.90;;;;;;5027417;28;20194;-66
2022/02/12 03:53:34;;;;;;;45.63;18.60;;;-1.50;99.90;;;;;;5034042;28;20193;-67
2022/02/12 03:56:03;;;;;;;39.90;16.93;;;-1.50;99.90;;;;;;5029907;28;20198;-66
2022/02/12 03:58:33;;;;;;;36.00;15.80;;;-1.50;99.90;;;;;;5039161;28;20278;-66
2022/02/12 04:01:01;;;;;;;43.57;16.10;;;-1.50;99.90;;;;;;5030945;28;20291;-67
2022/02/12 04:03:29;;;;;;;41.50;17.07;;;-1.40;99.90;;;;;;5030957;28;20256;-66
2022/02/12 04:05:58;;;;;;;49.37;17.80;;;-1.30;99.90;;;;;;5036057;28;20240;-67
2022/02/12 04:08:27;;;;;;;43.10;17.23;;;-1.20;99.90;;;;;;5034225;28;20200;-67
2022/02/12 04:10:55;;;;;;;35.53;15.60;;;-1.10;99.90;;;;;;5026821;28;20200;-65
2022/02/12 04:13:24;;;;;;;41.67;15.80;;;-1.10;99.90;;;;;;5030944;28;20198;-65
2022/02/12 04:15:53;;;;;;;37.07;16.00;;;-1.20;99.90;;;;;;5031954;28;20193;-68
2022/02/12 04:18:24;;;;;;;37.97;15.93;;;-1.10;99.90;;;;;;5024269;28;20200;-65
2022/02/12 04:20:52;;;;;;;36.03;15.13;;;-1.10;99.90;;;;;;5030901;28;20201;-65
2022/02/12 04:23:20;;;;;;;40.47;15.77;;;-1.10;99.90;;;;;;5031617;28;20681;-65
2022/02/12 04:25:49;;;;;;;41.60;16.17;;;-1.10;99.90;;;;;;5034575;28;20205;-68
2022/02/12 04:28:18;;;;;;;39.43;15.70;;;-1.10;99.90;;;;;;5029163;28;20254;-65
2022/02/12 04:30:46;;;;;;;38.70;15.87;;;-1.10;99.90;;;;;;5027558;28;20200;-65
2022/02/12 04:33:16;;;;;;;41.47;16.10;;;-1.10;99.90;;;;;;5028752;28;20198;-65
2022/02/12 04:35:44;;;;;;;30.40;15.23;;;-1.10;99.90;;;;;;5033072;28;20285;-65
2022/02/12 04:38:13;;;;;;;32.00;15.17;;;-1.00;99.90;;;;;;5027516;28;20197;-65
2022/02/12 04:40:41;;;;;;;36.67;15.20;;;-1.00;99.90;;;;;;5029595;28;20277;-65
2022/02/12 04:43:09;;;;;;;30.83;14.73;;;-1.00;99.90;;;;;;5030856;28;20221;-66
2022/02/12 04:45:38;;;;;;;39.83;15.27;;;-1.00;99.90;;;;;;5035450;28;20248;-65
2022/02/12 04:48:06;;;;;;;34.87;15.87;;;-1.00;99.90;;;;;;5029584;28;20202;-65
2022/02/12 04:50:37;;;;;;;42.63;18.47;;;-1.00;99.90;;;;;;5027978;28;20273;-65
2022/02/12 04:53:05;;;;;;;46.57;19.47;;;-1.10;99.90;;;;;;5026741;28;20600;-65
2022/02/12 04:55:36;;;;;;;61.20;24.53;;;-1.10;99.90;;;;;;5036686;28;20619;-65
2022/02/12 04:58:05;;;;;;;78.87;32.80;;;-1.10;99.90;;;;;;5029513;28;20205;-65
2022/02/12 05:00:37;;;;;;;93.10;37.30;;;-1.00;99.90;;;;;;5035973;28;20226;-67
2022/02/12 05:03:05;;;;;;;96.73;38.93;;;-0.90;99.90;;;;;;5029560;28;20214;-67
2022/02/12 05:05:37;;;;;;;93.57;39.27;;;-0.80;99.90;;;;;;5026545;28;20199;-65
2022/02/12 05:08:05;;;;;;;85.40;36.53;;;-0.90;99.90;;;;;;5016161;28;20198;-67
2022/02/12 05:10:34;;;;;;;83.03;32.03;;;-0.70;99.90;;;;;;5026367;28;20189;-65
2022/02/12 05:13:03;;;;;;;66.57;28.40;;;-0.70;99.90;;;;;;5029420;28;20276;-67
2022/02/12 05:15:31;;;;;;;61.10;23.63;;;-0.80;99.90;;;;;;5026691;28;20190;-67
2022/02/12 05:18:02;;;;;;;54.27;22.63;;;-0.80;99.90;;;;;;5030541;28;20235;-67
2022/02/12 05:20:30;;;;;;;50.13;20.63;;;-0.80;99.90;;;;;;5041679;28;20431;-67
2022/02/12 05:23:00;;;;;;;48.37;19.37;;;-0.90;99.90;;;;;;5029301;28;20544;-67
2022/02/12 05:25:28;;;;;;;52.47;19.63;;;-0.90;99.90;;;;;;5030288;28;20232;-66
2022/02/12 05:27:57;;;;;;;46.20;17.93;;;-0.90;99.90;;;;;;5028494;28;20216;-66
2022/02/12 05:30:25;;;;;;;43.63;17.50;;;-0.80;99.90;;;;;;5036844;28;20196;-67
2022/02/12 05:32:54;;;;;;;39.03;15.87;;;-0.80;99.90;;;;;;5024770;28;20189;-67
2022/02/12 05:35:23;;;;;;;39.00;16.70;;;-0.80;99.90;;;;;;5025109;28;20216;-67
2022/02/12 05:37:51;;;;;;;48.57;17.00;;;-0.80;99.90;;;;;;5032642;28;20626;-66
2022/02/12 05:40:21;;;;;;;38.00;15.73;;;-0.70;99.90;;;;;;5030487;28;20272;-67
2022/02/12 05:42:50;;;;;;;38.17;14.30;;;-0.70;99.90;;;;;;5035390;28;20212;-67
2022/02/12 05:45:19;;;;;;;45.87;14.43;;;-0.60;99.90;;;;;;5028333;28;20182;-67
2022/02/12 05:47:47;;;;;;;35.87;13.63;;;-0.60;99.90;;;;;;5031267;28;20255;-67
2022/02/12 05:50:15;;;;;;;34.83;12.50;;;-0.50;99.90;;;;;;5031406;28;20605;-66
2022/02/12 05:52:44;;;;;;;33.57;12.87;;;-0.40;99.90;;;;;;5026273;28;20755;-66
2022/02/12 05:55:13;;;;;;;32.90;12.97;;;-0.40;99.90;;;;;;5027065;28;20190;-67
2022/02/12 05:57:43;;;;;;;28.23;12.87;;;-0.40;99.90;;;;;;5025341;28;20543;-67
2022/02/12 06:00:13;;;;;;;33.33;12.57;;;-0.40;99.90;;;;;;5025248;28;20562;-67
2022/02/12 06:02:42;;;;;;;28.67;12.47;;;-0.40;99.90;;;;;;5021392;28;20240;-67
2022/02/12 06:05:12;;;;;;;29.90;12.70;;;-0.40;99.90;;;;;;5042804;28;20735;-66
2022/02/12 06:07:41;;;;;;;33.33;12.97;;;-0.50;99.90;;;;;;5029212;28;20233;-67
2022/02/12 06:10:10;;;;;;;36.87;12.97;;;-0.50;99.90;;;;;;5021966;28;20284;-66
2022/02/12 06:12:39;;;;;;;34.40;12.90;;;-0.50;99.90;;;;;;5024324;28;20193;-66
2022/02/12 06:15:09;;;;;;;35.97;13.23;;;-0.50;99.90;;;;;;5029191;28;20276;-66
2022/02/12 06:17:37;;;;;;;32.87;11.73;;;-0.60;99.90;;;;;;5029398;28;20236;-67
2022/02/12 06:20:07;;;;;;;33.47;11.90;;;-0.60;99.90;;;;;;5027360;28;20228;-66
2022/02/12 06:22:35;;;;;;;33.73;12.00;;;-0.60;99.90;;;;;;5026357;28;20607;-66
2022/02/12 06:25:04;;;;;;;29.30;11.77;;;-0.70;99.90;;;;;;5022824;28;20185;-66
2022/02/12 06:27:32;;;;;;;32.13;10.63;;;-0.70;99.90;;;;;;5029130;28;20285;-66
2022/02/12 06:30:01;;;;;;;31.40;11.47;;;-0.70;99.90;;;;;;5022928;28;20219;-67
2022/02/12 06:32:31;;;;;;;26.37;10.60;;;-0.70;99.90;;;;;;5027827;28;20192;-67
2022/02/12 06:35:01;;;;;;;30.43;11.27;;;-0.70;99.90;;;;;;5023063;28;20197;-67
2022/02/12 06:37:30;;;;;;;23.40;10.67;;;-0.70;99.90;;;;;;5023791;28;20614;-66
2022/02/12 06:39:59;;;;;;;30.67;11.03;;;-0.70;99.90;;;;;;5030585;28;20607;-66
2022/02/12 06:42:27;;;;;;;33.23;11.70;;;-0.70;99.90;;;;;;5032840;28;20879;-67
2022/02/12 06:44:56;;;;;;;23.83;10.37;;;-0.80;99.90;;;;;;5028406;28;20190;-66
2022/02/12 06:47:24;;;;;;;32.10;11.03;;;-0.80;99.90;;;;;;5028387;28;20217;-67
2022/02/12 06:49:54;;;;;;;22.23;9.87;;;-0.80;99.90;;;;;;5023972;28;20737;-67
2022/02/12 06:52:22;;;;;;;33.47;11.03;;;-0.80;99.90;;;;;;5025304;28;20205;-66
2022/02/12 06:54:51;;;;;;;29.10;11.23;;;-0.80;99.90;;;;;;5027791;28;20578;-66
2022/02/12 06:57:19;;;;;;;32.03;9.87;;;-0.90;99.90;;;;;;5024644;28;20333;-66
2022/02/12 06:59:48;;;;;;;21.87;9.27;;;-0.90;99.90;;;;;;5026658;28;20205;-67
2022/02/12 07:02:17;;;;;;;24.27;9.73;;;-0.90;99.90;;;;;;5032107;28;20202;-66
2022/02/12 07:04:46;;;;;;;20.73;9.40;;;-0.90;99.90;;;;;;5023691;28;20190;-66
2022/02/12 07:07:16;;;;;;;21.77;9.40;;;-0.90;99.90;;;;;;5023039;28;20798;-66
2022/02/12 07:09:45;;;;;;;23.83;9.53;;;-0.90;99.90;;;;;;5021820;28;20208;-66
2022/02/12 07:12:13;;;;;;;17.80;9.23;;;-0.80;99.90;;;;;;5045649;28;20189;-66
2022/02/12 07:14:42;;;;;;;22.43;8.70;;;-0.80;99.90;;;;;;5035589;28;20197;-66
2022/02/12 07:17:16;;;;;;;22.00;9.53;;;-0.90;99.90;;;;;;5040153;28;20197;-67
2022/02/12 07:19:45;;;;;;;20.77;9.20;;;-0.90;99.90;;;;;;5025158;28;20209;-66
2022/02/12 07:22:13;;;;;;;23.50;8.60;;;-0.90;99.90;;;;;;5027405;28;20621;-66
2022/02/12 07:24:43;;;;;;;18.80;8.50;;;-0.90;99.90;;;;;;5035780;28;20232;-66
2022/02/12 07:27:12;;;;;;;20.00;8.53;;;-0.90;99.90;;;;;;5021147;28;20755;-66
2022/02/12 07:29:41;;;;;;;20.70;8.57;;;-0.90;99.90;;;;;;5026929;28;20272;-66
2022/02/12 07:32:11;;;;;;;22.97;9.00;;;-0.80;99.90;;;;;;5030807;28;20224;-66
2022/02/12 07:34:39;;;;;;;26.20;9.87;;;-0.80;99.90;;;;;;5029747;28;20572;-66
2022/02/12 07:37:08;;;;;;;29.50;9.23;;;-0.80;99.90;;;;;;5026006;28;20686;-67
2022/02/12 07:39:37;;;;;;;21.37;8.90;;;-0.80;99.90;;;;;;5025681;28;20671;-66
2022/02/12 07:42:08;;;;;;;21.33;9.50;;;-0.70;99.90;;;;;;5025803;28;20257;-66
2022/02/12 07:44:36;;;;;;;24.53;8.70;;;-0.70;99.90;;;;;;5025631;28;20228;-66
2022/02/12 07:47:05;;;;;;;29.30;9.27;;;-0.70;99.90;;;;;;5030250;28;20193;-66
2022/02/12 07:49:34;;;;;;;22.77;9.03;;;-0.60;99.90;;;;;;5028901;28;20544;-66
2022/02/12 07:52:03;;;;;;;23.17;8.97;;;-0.50;99.90;;;;;;5033905;28;20634;-66
2022/02/12 07:54:33;;;;;;;21.53;9.20;;;-0.60;99.90;;;;;;5031788;28;20244;-67
2022/02/12 07:57:02;;;;;;;18.10;8.40;;;-0.60;99.90;;;;;;5030770;28;20614;-66
2022/02/12 07:59:32;;;;;;;23.20;8.23;;;-0.60;99.90;;;;;;5028230;28;20194;-66
2022/02/12 08:02:00;;;;;;;24.07;9.43;;;-0.50;99.90;;;;;;5030844;28;20808;-66
2022/02/12 08:04:29;;;;;;;71.70;28.63;;;-0.40;99.90;;;;;;5028439;28;20669;-66
2022/02/12 08:09:43;;;;;;;26.73;12.63;;;-0.10;99.90;;;;;;5023680;28;20270;-67
2022/02/12 08:12:14;;;;;;;28.73;14.77;;;0.00;99.90;;;;;;5030084;28;20205;-67
2022/02/12 08:14:46;;;;;;;29.33;10.33;;;0.20;99.90;;;;;;5030161;28;20292;-67
2022/02/12 08:17:16;;;;;;;26.13;9.17;;;0.40;99.90;;;;;;5032213;28;20634;-67
2022/02/12 08:19:45;;;;;;;28.63;9.03;;;0.50;99.90;;;;;;5022272;28;20571;-67
2022/02/12 08:22:15;;;;;;;22.70;8.70;;;0.70;99.90;;;;;;5029314;28;20707;-67
2022/02/12 08:24:44;;;;;;;18.87;8.70;;;0.90;99.90;;;;;;5034920;28;20228;-67
2022/02/12 08:27:14;;;;;;;17.43;8.00;;;1.10;99.90;;;;;;5022905;28;20566;-66
2022/02/12 08:29:45;;;;;;;14.63;7.30;;;1.30;99.90;;;;;;5014237;28;20723;-67
2022/02/12 08:32:14;;;;;;;22.43;8.43;;;1.50;99.90;;;;;;5021829;28;20205;-67
2022/02/12 08:34:42;;;;;;;18.67;8.10;;;1.60;99.90;;;;;;5040163;28;20576;-67
2022/02/12 08:37:13;;;;;;;24.57;9.33;;;1.70;99.90;;;;;;5018947;28;20189;-67
2022/02/12 08:39:48;;;;;;;32.40;8.67;;;1.80;99.90;;;;;;5018201;28;20205;-66
2022/02/12 08:42:18;;;;;;;28.77;9.53;;;2.10;99.90;;;;;;5024564;28;20209;-67
2022/02/12 08:44:50;;;;;;;24.20;10.10;;;2.30;99.90;;;;;;5036598;28;20828;-67
2022/02/12 08:47:19;;;;;;;22.67;9.67;;;2.50;99.90;;;;;;5023087;28;20236;-67
2022/02/12 08:49:47;;;;;;;23.90;8.40;;;2.60;99.90;;;;;;5032734;28;20198;-67
2022/02/12 08:52:15;;;;;;;26.97;7.70;;;2.70;99.90;;;;;;5020577;28;20200;-67
2022/02/12 08:54:44;;;;;;;19.90;7.23;;;2.90;99.90;;;;;;5026251;28;20208;-67
2022/02/12 08:57:12;;;;;;;16.60;7.30;;;3.00;99.90;;;;;;5029259;28;20551;-67
2022/02/12 08:59:41;;;;;;;21.87;7.73;;;3.10;99.90;;;;;;5024750;28;20198;-67
2022/02/12 09:02:14;;;;;;;21.77;8.17;;;3.10;99.90;;;;;;5021896;28;20778;-67
2022/02/12 09:04:43;;;;;;;22.20;6.20;;;3.30;99.90;;;;;;5031244;28;20213;-66
2022/02/12 09:07:14;;;;;;;16.67;7.17;;;3.40;99.90;;;;;;5024393;28;20233;-67
2022/02/12 09:09:43;;;;;;;17.27;6.77;;;3.40;99.90;;;;;;5020732;28;20287;-67
2022/02/12 09:12:14;;;;;;;13.77;5.93;;;3.50;99.90;;;;;;5028333;28;20198;-67
2022/02/12 09:14:43;;;;;;;17.13;5.73;;;3.40;99.90;;;;;;5038684;28;20243;-67
2022/02/12 09:17:13;;;;;;;18.70;5.27;;;3.60;99.90;;;;;;5029558;28;20199;-66
2022/02/12 09:19:42;;;;;;;12.77;5.57;;;3.80;99.90;;;;;;5025353;28;20197;-67
2022/02/12 09:22:11;;;;;;;14.53;6.13;;;3.90;99.90;;;;;;5021864;28;20212;-67
2022/02/12 09:24:40;;;;;;;19.77;5.87;;;4.00;99.90;;;;;;5015522;28;20713;-67
2022/02/12 09:27:09;;;;;;;14.77;5.30;;;4.20;99.90;;;;;;5038114;28;20216;-67
2022/02/12 09:29:39;;;;;;;12.27;5.37;;;4.40;99.90;;;;;;5018846;28;20703;-67
2022/02/12 09:32:11;;;;;;;13.27;5.50;;;4.50;99.90;;;;;;5023283;28;20209;-67
2022/02/12 09:34:41;;;;;;;13.03;5.53;;;4.60;99.90;;;;;;5033241;28;20205;-67
2022/02/12 09:37:10;;;;;;;18.13;6.00;;;4.80;99.90;;;;;;5029163;28;20197;-67
2022/02/12 09:39:39;;;;;;;14.73;5.10;;;4.90;99.90;;;;;;5023305;28;20197;-67
2022/02/12 09:42:09;;;;;;;9.17;5.07;;;5.20;99.90;;;;;;5024330;28;20205;-67
2022/02/12 09:44:39;;;;;;;12.40;5.10;;;5.40;99.90;;;;;;5019687;28;20229;-68
2022/02/12 09:47:32;;;;;;;14.60;5.23;;;5.70;99.90;;;;;;5017575;28;20751;-67
2022/02/12 09:50:02;;;;;;;9.57;4.30;;;6.00;99.90;;;;;;5021471;28;20228;-67
2022/02/12 09:52:33;;;;;;;17.70;4.93;;;6.20;99.90;;;;;;5022048;28;20289;-67
2022/02/12 09:55:02;;;;;;;15.00;4.93;;;6.00;99.90;;;;;;5018407;28;20252;-67
2022/02/12 09:57:31;;;;;;;12.20;4.73;;;5.80;99.90;;;;;;5023166;28;20224;-67
2022/02/12 10:00:01;;;;;;;14.60;4.90;;;5.60;99.90;;;;;;5023171;28;20231;-67
2022/02/12 10:02:29;;;;;;;11.87;4.63;;;5.50;99.90;;;;;;5020958;28;20193;-67
2022/02/12 10:05:32;;;;;;;12.40;4.87;;;5.60;99.90;;;;;;5028021;28;20292;-67
2022/02/12 10:08:15;;;;;;;15.50;5.03;;;5.70;99.90;;;;;;4947561;28;20192;-67
2022/02/12 10:10:45;;;;;;;11.73;4.50;;;5.90;99.90;;;;;;5015156;28;20348;-67
2022/02/12 10:13:18;;;;;;;75.33;24.17;;;6.40;99.90;;;;;;5015456;28;20198;-67
2022/02/12 10:15:48;;;;;;;13.23;4.47;;;6.80;99.90;;;;;;5016768;28;20205;-68
2022/02/12 10:18:19;;;;;;;13.83;4.07;;;7.30;99.90;;;;;;5018309;28;20225;-68
2022/02/12 10:20:49;;;;;;;13.37;4.50;;;7.40;99.90;;;;;;5016963;28;20851;-67
2022/02/12 10:23:19;;;;;;;9.80;4.60;;;7.50;99.90;;;;;;5027368;28;20197;-68
2022/02/12 10:25:48;;;;;;;29.30;14.17;;;7.60;99.90;;;;;;5018505;28;20224;-68
2022/02/12 10:28:20;;;;;;;73.07;35.93;;;7.60;99.90;;;;;;5023140;28;20215;-68
2022/02/12 10:30:48;;;;;;;15.17;5.17;;;7.70;99.90;;;;;;5025300;28;20255;-68
2022/02/12 10:33:17;;;;;;;8.93;4.13;;;8.00;99.90;;;;;;5033201;28;20200;-68
2022/02/12 10:35:55;;;;;;;14.60;4.50;;;8.10;99.90;;;;;;5024845;28;20229;-68
2022/02/12 10:38:27;;;;;;;40.83;20.67;;;8.10;99.90;;;;;;5021305;28;20195;-68
2022/02/12 10:41:11;;;;;;;13.50;4.10;;;8.10;99.90;;;;;;5018897;28;20197;-67
2022/02/12 10:43:41;;;;;;;10.67;5.47;;;8.40;99.90;;;;;;5024452;28;20216;-68
2022/02/12 10:46:11;;;;;;;11.67;4.60;;;8.40;99.90;;;;;;5016579;28;20221;-68
2022/02/12 10:48:40;;;;;;;8.57;4.03;;;8.40;99.90;;;;;;5018615;28;20284;-68
2022/02/12 10:51:14;;;;;;;13.50;6.30;;;8.70;99.90;;;;;;5017931;28;20232;-68
2022/02/12 10:54:04;;;;;;;13.53;7.63;;;8.90;99.90;;;;;;5020993;28;20209;-68
2022/02/12 10:56:51;;;;;;;8.83;4.87;;;9.30;99.90;;;;;;5026487;28;20197;-68
2022/02/12 10:59:22;;;;;;;14.10;5.00;;;9.50;99.90;;;;;;5025132;28;20201;-68
2022/02/12 11:01:53;;;;;;;8.13;4.60;;;9.50;99.90;;;;;;5019746;28;20228;-68
2022/02/12 11:04:24;;;;;;;8.90;4.20;;;8.90;99.90;;;;;;5025451;28;20235;-68
2022/02/12 11:06:54;;;;;;;17.20;9.13;;;8.50;99.90;;;;;;5021935;28;20738;-68
2022/02/12 11:09:22;;;;;;;23.70;9.53;;;8.30;99.90;;;;;;5022061;28;20196;-68
2022/02/12 11:11:51;;;;;;;14.80;8.67;;;8.40;99.90;;;;;;5045610;28;20197;-69
2022/02/12 11:14:22;;;;;;;9.63;4.43;;;8.50;99.90;;;;;;5025445;28;20206;-68
2022/02/12 11:16:51;;;;;;;18.47;8.43;;;8.60;99.90;;;;;;5027506;28;20236;-68
2022/02/12 11:19:21;;;;;;;7.23;6.23;;;8.70;99.90;;;;;;5034617;28;20281;-68
2022/02/12 11:21:50;;;;;;;16.70;6.00;;;8.60;99.90;;;;;;5025198;28;20241;-68
2022/02/12 11:24:35;;;;;;;20.30;6.20;;;8.60;99.90;;;;;;5022744;28;20667;-68
2022/02/12 11:27:20;;;;;;;11.23;5.70;;;8.70;99.90;;;;;;5027391;28;20239;-69
2022/02/12 11:29:50;;;;;;;14.43;6.40;;;9.10;99.90;;;;;;5026921;28;20323;-69
2022/02/12 11:32:22;;;;;;;14.20;7.90;;;9.20;99.90;;;;;;5024142;28;20210;-68
2022/02/12 11:35:24;;;;;;;12.93;7.40;;;9.20;99.90;;;;;;5025004;28;20657;-69
2022/02/12 11:37:53;;;;;;;14.33;8.30;;;9.40;99.90;;;;;;5024230;28;20236;-68
2022/02/12 11:40:24;;;;;;;14.37;6.93;;;9.70;99.90;;;;;;5020098;28;20276;-69
2022/02/12 11:42:55;;;;;;;17.67;7.23;;;9.80;99.90;;;;;;5037836;28;20215;-69
2022/02/12 11:45:33;;;;;;;19.57;7.87;;;9.80;99.90;;;;;;5034057;28;20217;-69
2022/02/12 11:48:18;;;;;;;16.07;7.57;;;9.50;99.90;;;;;;5023067;28;20201;-68
2022/02/12 11:50:51;;;;;;;19.73;8.80;;;9.40;99.90;;;;;;5025342;28;20289;-69
2022/02/12 11:53:49;;;;;;;23.50;8.70;;;9.20;99.90;;;;;;5031435;28;20201;-69
2022/02/12 11:56:54;;;;;;;19.20;7.63;;;9.30;99.90;;;;;;4995889;28;20202;-69
2022/02/12 11:59:23;;;;;;;20.23;6.97;;;9.40;99.90;;;;;;4966844;28;20241;-69
2022/02/12 12:01:53;;;;;;;14.90;6.33;;;9.40;99.90;;;;;;5018929;28;20292;-69
2022/02/12 12:05:12;;;;;;;14.93;6.00;;;9.70;99.90;;;;;;5024663;28;20264;-69
2022/02/12 12:08:10;;;;;;;11.03;4.30;;;9.70;99.90;;;;;;5032142;28;20273;-69
2022/02/12 12:11:10;;;;;;;9.87;4.43;;;9.60;99.90;;;;;;5028724;28;20189;-69
2022/02/12 12:13:44;;;;;;;11.17;4.60;;;9.40;99.90;;;;;;5024491;28;20201;-69
2022/02/12 12:16:33;;;;;;;11.27;5.10;;;9.30;99.90;;;;;;5038620;28;20219;-69
2022/02/12 12:19:03;;;;;;;7.60;4.40;;;9.40;99.90;;;;;;5027877;28;20244;-69
2022/02/12 12:21:32;;;;;;;11.87;4.67;;;9.40;99.90;;;;;;5029039;28;20221;-69
2022/02/12 12:24:02;;;;;;;11.67;4.47;;;9.50;99.90;;;;;;5028314;28;20198;-69
2022/02/12 12:26:42;;;;;;;8.10;4.70;;;9.80;99.90;;;;;;5032878;28;20244;-69
2022/02/12 12:32:02;;;;;;;7.53;4.23;;;9.80;99.90;;;;;;5035714;28;20235;-69
2022/02/12 12:34:31;;;;;;;10.87;4.70;;;9.80;99.90;;;;;;5029737;28;20212;-69
2022/02/12 12:37:01;;;;;;;10.97;4.67;;;9.50;99.90;;;;;;5031239;28;20198;-69
2022/02/12 12:39:36;;;;;;;11.60;4.40;;;9.30;99.90;;;;;;5027962;28;20711;-69
2022/02/12 12:42:14;;;;;;;12.87;4.60;;;9.50;99.90;;;;;;5028882;28;20275;-69
2022/02/12 12:44:45;;;;;;;6.33;3.93;;;9.60;99.90;;;;;;5023416;28;20197;-69
2022/02/12 12:47:16;;;;;;;12.53;4.60;;;9.90;99.90;;;;;;5022449;28;20227;-69
2022/02/12 12:49:45;;;;;;;11.40;4.43;;;10.00;99.90;;;;;;5029184;28;20201;-68
2022/02/12 12:52:16;;;;;;;11.80;4.53;;;9.70;99.90;;;;;;5029012;28;20240;-69
2022/02/12 12:54:46;;;;;;;8.97;4.40;;;9.30;99.90;;;;;;5027817;28;20203;-69
2022/02/12 12:57:15;;;;;;;13.47;4.50;;;9.40;99.90;;;;;;5046179;28;20194;-69
2022/02/12 12:59:51;;;;;;;9.77;4.10;;;9.50;99.90;;;;;;5023360;28;20198;-69
2022/02/12 13:02:20;;;;;;;14.20;4.20;;;9.60;99.90;;;;;;5047440;28;20226;-68
2022/02/12 13:04:50;;;;;;;13.53;3.90;;;9.60;99.90;;;;;;5029680;28;20205;-68